createdAt,value
2018-12-24T00:00:32.686Z,8.10
2018-12-24T00:01:38.097Z,6.47
2018-12-24T00:02:43.846Z,7.60
2018-12-24T00:03:49.362Z,8.20
2018-12-24T00:04:54.780Z,8.03
2018-12-24T00:06:00.132Z,7.10
2018-12-24T00:07:05.544Z,7.25
2018-12-24T00:08:11.037Z,6.90
2018-12-24T00:09:16.367Z,5.83
2018-12-24T00:10:22.007Z,7.03
2018-12-24T00:11:27.511Z,8.03
2018-12-24T00:12:32.861Z,7.97
2018-12-24T00:13:38.408Z,7.87
2018-12-24T00:14:44.066Z,6.85
2018-12-24T00:15:49.625Z,8.18
2018-12-24T00:16:55.084Z,7.62
2018-12-24T00:18:00.656Z,7.85
2018-12-24T00:19:16.274Z,7.78
2018-12-24T00:20:22.551Z,6.85
2018-12-24T00:21:28.082Z,9.90
2018-12-24T00:22:33.614Z,8.85
2018-12-24T00:23:39.152Z,7.92
2018-12-24T00:24:44.620Z,6.45
2018-12-24T00:25:50.139Z,5.90
2018-12-24T00:26:55.683Z,6.40
2018-12-24T00:28:01.109Z,8.65
2018-12-24T00:29:06.628Z,8.53
2018-12-24T00:30:12.264Z,6.92
2018-12-24T00:31:17.851Z,6.90
2018-12-24T00:32:23.230Z,8.23
2018-12-24T00:33:28.723Z,7.28
2018-12-24T00:34:34.176Z,8.03
2018-12-24T00:35:39.622Z,8.30
2018-12-24T00:36:45.027Z,8.20
2018-12-24T00:37:50.561Z,8.63
2018-12-24T00:38:56.055Z,7.50
2018-12-24T00:40:01.536Z,8.95
2018-12-24T00:41:07.011Z,8.88
2018-12-24T00:42:15.961Z,9.08
2018-12-24T00:43:19.467Z,9.63
2018-12-24T00:44:24.936Z,8.40
2018-12-24T00:45:30.389Z,11.22
2018-12-24T00:46:35.782Z,9.38
2018-12-24T00:47:41.246Z,8.48
2018-12-24T00:48:46.671Z,9.18
2018-12-24T00:49:52.627Z,7.62
2018-12-24T00:50:57.940Z,8.63
2018-12-24T00:52:03.380Z,7.33
2018-12-24T00:53:08.936Z,10.95
2018-12-24T00:54:17.505Z,6.17
2018-12-24T00:55:22.923Z,9.38
2018-12-24T00:56:28.280Z,7.15
2018-12-24T00:57:33.768Z,7.50
2018-12-24T00:58:39.187Z,7.55
2018-12-24T00:59:44.807Z,10.20
2018-12-24T01:00:50.274Z,7.70
2018-12-24T01:01:55.763Z,8.48
2018-12-24T01:03:01.209Z,8.18
2018-12-24T01:04:06.742Z,7.70
2018-12-24T01:05:12.382Z,8.20
2018-12-24T01:06:17.835Z,6.20
2018-12-24T01:07:23.242Z,9.05
2018-12-24T01:08:28.651Z,7.78
2018-12-24T01:09:34.028Z,5.87
2018-12-24T01:10:39.329Z,5.65
2018-12-24T01:11:44.631Z,7.75
2018-12-24T01:12:50.055Z,5.90
2018-12-24T01:13:55.618Z,5.92
2018-12-24T01:15:01.040Z,5.60
2018-12-24T01:16:06.486Z,6.17
2018-12-24T01:17:11.888Z,5.00
2018-12-24T01:18:17.288Z,6.45
2018-12-24T01:19:22.618Z,7.58
2018-12-24T01:20:28.292Z,16.65
2018-12-24T01:21:33.711Z,9.43
2018-12-24T01:22:39.002Z,5.90
2018-12-24T01:23:44.470Z,5.03
2018-12-24T01:24:49.900Z,5.58
2018-12-24T01:25:55.176Z,4.62
2018-12-24T01:27:00.552Z,6.60
2018-12-24T01:28:05.824Z,4.50
2018-12-24T01:29:11.324Z,6.22
2018-12-24T01:30:16.680Z,5.85
2018-12-24T01:31:21.948Z,5.40
2018-12-24T01:32:27.354Z,4.85
2018-12-24T01:33:32.736Z,4.92
2018-12-24T01:34:38.027Z,6.12
2018-12-24T01:35:43.392Z,6.75
2018-12-24T01:36:48.752Z,5.67
2018-12-24T01:37:54.044Z,5.53
2018-12-24T01:38:59.460Z,5.15
2018-12-24T01:40:04.733Z,5.58
2018-12-24T01:41:10.075Z,6.62
2018-12-24T01:42:15.471Z,6.10
2018-12-24T01:43:20.799Z,7.28
2018-12-24T01:44:26.714Z,5.33
2018-12-24T01:45:31.933Z,7.25
2018-12-24T01:46:37.269Z,4.80
2018-12-24T01:47:42.744Z,6.78
2018-12-24T01:48:48.084Z,7.03
2018-12-24T01:49:53.541Z,6.37
2018-12-24T01:50:58.931Z,6.17
2018-12-24T01:52:04.224Z,5.28
2018-12-24T01:53:09.612Z,5.17
2018-12-24T01:54:15.202Z,5.22
2018-12-24T01:55:20.438Z,6.70
2018-12-24T01:56:25.828Z,5.47
2018-12-24T01:57:31.205Z,5.40
2018-12-24T01:58:36.587Z,5.12
2018-12-24T01:59:42.049Z,6.30
2018-12-24T02:00:47.384Z,5.67
2018-12-24T02:01:52.818Z,6.37
2018-12-24T02:02:58.156Z,9.25
2018-12-24T02:04:03.860Z,6.90
2018-12-24T02:05:09.299Z,5.30
2018-12-24T02:06:14.676Z,5.65
2018-12-24T02:07:19.932Z,6.10
2018-12-24T02:08:25.349Z,6.55
2018-12-24T02:09:30.760Z,6.03
2018-12-24T02:10:36.161Z,5.20
2018-12-24T02:11:41.470Z,5.58
2018-12-24T02:12:46.752Z,6.65
2018-12-24T02:13:52.103Z,5.95
2018-12-24T02:14:57.531Z,5.87
2018-12-24T02:16:02.896Z,5.03
2018-12-24T02:17:08.338Z,5.55
2018-12-24T02:18:13.685Z,6.22
2018-12-24T02:19:19.011Z,5.58
2018-12-24T02:20:24.450Z,6.40
2018-12-24T02:21:29.748Z,6.80
2018-12-24T02:22:35.181Z,7.33
2018-12-24T02:23:40.557Z,7.50
2018-12-24T02:24:45.902Z,5.83
2018-12-24T02:25:51.162Z,6.42
2018-12-24T02:26:56.628Z,6.00
2018-12-24T02:28:01.856Z,5.70
2018-12-24T02:29:07.292Z,6.62
2018-12-24T02:30:12.898Z,5.28
2018-12-24T02:31:18.259Z,8.48
2018-12-24T02:32:23.702Z,6.67
2018-12-24T02:33:29.109Z,8.60
2018-12-24T02:34:34.544Z,7.28
2018-12-24T02:35:39.992Z,6.40
2018-12-24T02:36:45.330Z,6.72
2018-12-24T02:37:50.718Z,6.78
2018-12-24T02:38:56.116Z,6.50
2018-12-24T02:40:01.458Z,9.25
2018-12-24T02:41:07.051Z,6.60
2018-12-24T02:42:12.351Z,7.33
2018-12-24T02:43:18.100Z,6.42
2018-12-24T02:44:23.532Z,7.80
2018-12-24T02:45:28.935Z,7.30
2018-12-24T02:46:34.548Z,8.45
2018-12-24T02:47:41.224Z,6.12
2018-12-24T02:48:46.544Z,6.53
2018-12-24T02:49:51.968Z,6.70
2018-12-24T02:50:57.196Z,6.72
2018-12-24T02:52:02.757Z,7.75
2018-12-24T02:53:08.246Z,6.58
2018-12-24T02:54:13.559Z,7.87
2018-12-24T02:55:18.968Z,6.25
2018-12-24T02:56:24.383Z,7.33
2018-12-24T02:57:29.657Z,6.22
2018-12-24T02:58:35.113Z,7.67
2018-12-24T02:59:40.582Z,6.40
2018-12-24T03:00:46.021Z,7.33
2018-12-24T03:01:51.770Z,7.33
2018-12-24T03:02:57.138Z,6.50
2018-12-24T03:04:03.527Z,6.80
2018-12-24T03:05:08.981Z,9.15
2018-12-24T03:06:14.295Z,9.35
2018-12-24T03:07:19.663Z,8.38
2018-12-24T03:08:24.968Z,8.35
2018-12-24T03:09:30.400Z,6.10
2018-12-24T03:10:35.792Z,7.58
2018-12-24T03:11:41.120Z,7.78
2018-12-24T03:12:46.692Z,7.80
2018-12-24T03:13:52.005Z,7.35
2018-12-24T03:14:57.288Z,7.42
2018-12-24T03:16:02.636Z,6.60
2018-12-24T03:17:08.215Z,6.90
2018-12-24T03:18:16.727Z,8.05
2018-12-24T03:19:22.115Z,6.53
2018-12-24T03:20:27.460Z,6.47
2018-12-24T03:21:32.921Z,7.70
2018-12-24T03:22:38.235Z,7.22
2018-12-24T03:23:43.618Z,6.70
2018-12-24T03:24:48.970Z,5.03
2018-12-24T03:25:54.289Z,6.17
2018-12-24T03:26:59.671Z,6.65
2018-12-24T03:28:08.174Z,7.55
2018-12-24T03:29:13.592Z,6.92
2018-12-24T03:30:19.129Z,6.28
2018-12-24T03:31:24.393Z,6.60
2018-12-24T03:32:29.770Z,7.33
2018-12-24T03:33:36.317Z,5.62
2018-12-24T03:34:41.568Z,6.58
2018-12-24T03:35:46.974Z,5.72
2018-12-24T03:36:52.280Z,7.28
2018-12-24T03:38:00.572Z,6.00
2018-12-24T03:39:07.138Z,8.08
2018-12-24T03:40:12.564Z,5.60
2018-12-24T03:41:17.903Z,7.87
2018-12-24T03:42:23.147Z,7.42
2018-12-24T03:43:28.485Z,7.22
2018-12-24T03:44:34.123Z,6.62
2018-12-24T03:45:39.433Z,8.40
2018-12-24T03:46:44.679Z,7.47
2018-12-24T03:47:50.091Z,7.65
2018-12-24T03:48:56.538Z,5.53
2018-12-24T03:50:01.896Z,7.45
2018-12-24T03:51:07.191Z,6.75
2018-12-24T03:52:12.573Z,6.28
2018-12-24T03:53:17.985Z,6.87
2018-12-24T03:54:23.271Z,8.18
2018-12-24T03:55:28.673Z,7.12
2018-12-24T03:56:34.012Z,8.20
2018-12-24T03:57:39.937Z,7.22
2018-12-24T03:58:45.275Z,6.90
2018-12-24T03:59:50.671Z,7.70
2018-12-24T04:00:55.993Z,7.25
2018-12-24T04:02:01.256Z,7.03
2018-12-24T04:03:06.649Z,6.67
2018-12-24T04:04:12.032Z,8.60
2018-12-24T04:05:17.317Z,8.00
2018-12-24T04:06:22.733Z,7.95
2018-12-24T04:07:28.144Z,7.55
2018-12-24T04:08:33.480Z,9.70
2018-12-24T04:09:38.864Z,7.75
2018-12-24T04:10:44.362Z,9.05
2018-12-24T04:11:49.633Z,6.80
2018-12-24T04:12:55.059Z,7.72
2018-12-24T04:14:00.423Z,6.72
2018-12-24T04:15:05.949Z,6.97
2018-12-24T04:16:11.238Z,7.03
2018-12-24T04:17:17.134Z,7.12
2018-12-24T04:18:22.581Z,5.70
2018-12-24T04:19:27.850Z,5.25
2018-12-24T04:20:33.229Z,6.10
2018-12-24T04:21:38.638Z,6.45
2018-12-24T04:22:43.989Z,5.85
2018-12-24T04:23:49.345Z,5.45
2018-12-24T04:24:54.860Z,5.87
2018-12-24T04:26:00.261Z,6.65
2018-12-24T04:27:05.508Z,5.80
2018-12-24T04:28:10.965Z,5.50
2018-12-24T04:29:16.347Z,8.13
2018-12-24T04:30:21.622Z,7.72
2018-12-24T04:31:27.098Z,6.10
2018-12-24T04:32:32.438Z,5.72
2018-12-24T04:33:37.916Z,5.60
2018-12-24T04:34:43.237Z,4.97
2018-12-24T04:35:48.624Z,5.12
2018-12-24T04:36:53.946Z,7.25
2018-12-24T04:37:59.204Z,6.85
2018-12-24T04:39:05.686Z,7.47
2018-12-24T04:40:11.067Z,6.12
2018-12-24T04:41:16.436Z,5.90
2018-12-24T04:42:21.807Z,6.47
2018-12-24T04:43:32.033Z,5.67
2018-12-24T04:44:34.539Z,5.05
2018-12-24T04:45:39.905Z,5.03
2018-12-24T04:46:45.336Z,5.12
2018-12-24T04:47:50.644Z,5.08
2018-12-24T04:48:59.096Z,4.95
2018-12-24T04:50:04.445Z,5.47
2018-12-24T04:51:09.820Z,6.58
2018-12-24T04:52:15.189Z,8.68
2018-12-24T04:53:20.587Z,7.15
2018-12-24T04:54:25.995Z,8.58
2018-12-24T04:55:31.227Z,6.40
2018-12-24T04:56:36.631Z,5.85
2018-12-24T04:57:42.045Z,6.97
2018-12-24T04:58:47.315Z,8.55
2018-12-24T04:59:52.692Z,7.83
2018-12-24T05:00:58.100Z,6.55
2018-12-24T05:02:03.471Z,7.45
2018-12-24T05:03:08.837Z,6.80
2018-12-24T05:04:14.253Z,7.42
2018-12-24T05:05:19.704Z,6.12
2018-12-24T05:06:25.002Z,6.97
2018-12-24T05:07:30.363Z,7.12
2018-12-24T05:08:35.756Z,7.20
2018-12-24T05:09:41.149Z,8.15
2018-12-24T05:10:46.601Z,6.58
2018-12-24T05:11:51.991Z,8.75
2018-12-24T05:12:57.377Z,6.35
2018-12-24T05:14:02.652Z,7.90
2018-12-24T05:15:08.057Z,6.75
2018-12-24T05:16:13.460Z,7.45
2018-12-24T05:17:18.756Z,7.65
2018-12-24T05:18:24.169Z,6.10
2018-12-24T05:19:29.544Z,7.22
2018-12-24T05:20:34.908Z,6.72
2018-12-24T05:21:40.275Z,6.87
2018-12-24T05:22:45.648Z,7.42
2018-12-24T05:23:51.013Z,8.15
2018-12-24T05:24:56.261Z,7.15
2018-12-24T05:26:01.737Z,6.20
2018-12-24T05:27:07.252Z,7.28
2018-12-24T05:28:12.501Z,6.67
2018-12-24T05:29:17.764Z,8.45
2018-12-24T05:30:23.181Z,6.70
2018-12-24T05:31:28.607Z,7.42
2018-12-24T05:32:33.864Z,9.20
2018-12-24T05:33:39.248Z,8.08
2018-12-24T05:34:44.673Z,6.55
2018-12-24T05:35:50.061Z,7.17
2018-12-24T05:36:55.375Z,7.28
2018-12-24T05:38:00.775Z,8.05
2018-12-24T05:39:07.684Z,6.97
2018-12-24T05:40:13.072Z,7.10
2018-12-24T05:41:18.559Z,7.35
2018-12-24T05:42:23.809Z,6.95
2018-12-24T05:43:29.204Z,8.15
2018-12-24T05:44:34.569Z,7.33
2018-12-24T05:45:39.965Z,6.85
2018-12-24T05:46:45.288Z,7.33
2018-12-24T05:47:50.708Z,6.70
2018-12-24T05:48:56.248Z,5.97
2018-12-24T05:50:01.489Z,9.45
2018-12-24T05:51:06.796Z,7.97
2018-12-24T05:52:12.192Z,8.88
2018-12-24T05:53:17.600Z,10.03
2018-12-24T05:54:22.932Z,8.95
2018-12-24T05:55:28.456Z,7.15
2018-12-24T05:56:33.841Z,8.90
2018-12-24T05:57:39.201Z,7.50
2018-12-24T05:58:44.618Z,7.30
2018-12-24T05:59:50.028Z,7.10
2018-12-24T06:00:55.404Z,7.47
2018-12-24T06:02:00.841Z,6.45
2018-12-24T06:03:06.180Z,8.40
2018-12-24T06:04:11.562Z,7.53
2018-12-24T06:05:16.879Z,7.90
2018-12-24T06:06:22.379Z,9.38
2018-12-24T06:07:27.701Z,6.42
2018-12-24T06:08:33.187Z,6.58
2018-12-24T06:09:38.874Z,6.72
2018-12-24T06:10:44.294Z,11.00
2018-12-24T06:11:49.657Z,7.47
2018-12-24T06:12:55.032Z,7.67
2018-12-24T06:14:00.347Z,7.35
2018-12-24T06:15:06.004Z,7.70
2018-12-24T06:16:11.368Z,7.65
2018-12-24T06:17:16.855Z,6.97
2018-12-24T06:18:22.308Z,10.85
2018-12-24T06:19:27.644Z,7.92
2018-12-24T06:20:37.653Z,9.05
2018-12-24T06:21:40.120Z,8.15
2018-12-24T06:22:45.571Z,9.80
2018-12-24T06:23:50.964Z,9.55
2018-12-24T06:24:56.399Z,9.73
2018-12-24T06:26:01.895Z,8.83
2018-12-24T06:27:07.344Z,10.00
2018-12-24T06:28:12.704Z,8.10
2018-12-24T06:29:18.231Z,9.70
2018-12-24T06:30:23.741Z,8.05
2018-12-24T06:31:29.329Z,9.80
2018-12-24T06:32:35.031Z,8.28
2018-12-24T06:33:40.540Z,11.10
2018-12-24T06:34:46.066Z,10.43
2018-12-24T06:35:51.574Z,9.83
2018-12-24T06:36:57.058Z,9.33
2018-12-24T06:38:02.592Z,9.60
2018-12-24T06:39:09.231Z,12.33
2018-12-24T06:40:14.781Z,9.28
2018-12-24T06:41:20.398Z,10.45
2018-12-24T06:42:25.811Z,10.25
2018-12-24T06:43:31.304Z,11.53
2018-12-24T06:44:36.784Z,10.00
2018-12-24T06:45:42.212Z,9.75
2018-12-24T06:46:47.663Z,13.28
2018-12-24T06:47:53.296Z,11.63
2018-12-24T06:48:58.744Z,9.78
2018-12-24T06:50:04.269Z,10.28
2018-12-24T06:51:09.725Z,8.58
2018-12-24T06:52:15.151Z,9.98
2018-12-24T06:53:20.524Z,12.98
2018-12-24T06:54:25.921Z,14.43
2018-12-24T06:55:31.481Z,14.30
2018-12-24T06:56:36.971Z,13.20
2018-12-24T06:57:42.562Z,13.90
2018-12-24T06:58:48.052Z,11.78
2018-12-24T06:59:53.908Z,13.08
2018-12-24T07:00:59.435Z,11.88
2018-12-24T07:02:04.934Z,13.03
2018-12-24T07:03:10.329Z,12.00
2018-12-24T07:04:15.948Z,13.48
2018-12-24T07:05:21.307Z,12.75
2018-12-24T07:06:26.754Z,12.47
2018-12-24T07:07:32.520Z,11.70
2018-12-24T07:08:37.904Z,10.60
2018-12-24T07:09:43.199Z,12.28
2018-12-24T07:10:48.855Z,11.57
2018-12-24T07:11:54.595Z,10.90
2018-12-24T07:13:00.144Z,9.88
2018-12-24T07:14:05.907Z,13.78
2018-12-24T07:15:11.527Z,13.05
2018-12-24T07:16:16.865Z,12.80
2018-12-24T07:17:22.471Z,10.55
2018-12-24T07:18:30.012Z,11.12
2018-12-24T07:19:35.443Z,11.93
2018-12-24T07:20:40.858Z,11.93
2018-12-24T07:21:46.268Z,13.72
2018-12-24T07:22:51.644Z,15.35
2018-12-24T07:23:57.000Z,20.17
2018-12-24T07:25:02.594Z,22.60
2018-12-24T07:26:09.100Z,18.80
2018-12-24T07:27:14.701Z,17.37
2018-12-24T07:28:20.180Z,16.85
2018-12-24T07:29:25.595Z,17.85
2018-12-24T07:30:31.042Z,16.07
2018-12-24T07:31:36.293Z,13.93
2018-12-24T07:32:41.806Z,12.95
2018-12-24T07:33:47.275Z,13.08
2018-12-24T07:34:52.566Z,11.65
2018-12-24T07:35:58.013Z,11.40
2018-12-24T07:37:05.384Z,12.37
2018-12-24T07:38:11.195Z,14.45
2018-12-24T07:39:20.858Z,11.18
2018-12-24T07:40:26.417Z,11.33
2018-12-24T07:41:31.904Z,11.30
2018-12-24T07:42:37.631Z,10.08
2018-12-24T07:43:43.060Z,9.10
2018-12-24T07:44:48.535Z,9.08
2018-12-24T07:45:53.829Z,9.48
2018-12-24T07:46:59.339Z,11.97
2018-12-24T07:48:04.668Z,9.50
2018-12-24T07:49:10.240Z,10.98
2018-12-24T07:50:15.751Z,11.10
2018-12-24T07:51:21.223Z,11.70
2018-12-24T07:52:26.564Z,9.80
2018-12-24T07:53:31.975Z,14.38
2018-12-24T07:54:37.275Z,11.00
2018-12-24T07:55:42.734Z,11.20
2018-12-24T07:56:48.257Z,10.72
2018-12-24T07:57:53.801Z,14.60
2018-12-24T07:58:59.199Z,11.63
2018-12-24T08:00:04.809Z,13.95
2018-12-24T08:01:10.250Z,14.87
2018-12-24T08:02:15.662Z,13.15
2018-12-24T08:03:21.189Z,12.85
2018-12-24T08:04:28.784Z,14.47
2018-12-24T08:05:33.676Z,14.25
2018-12-24T08:06:39.180Z,13.60
2018-12-24T08:07:44.566Z,12.43
2018-12-24T08:08:49.957Z,16.65
2018-12-24T08:09:55.425Z,13.45
2018-12-24T08:11:01.036Z,19.52
2018-12-24T08:12:06.386Z,10.28
2018-12-24T08:13:11.868Z,23.35
2018-12-24T08:14:20.114Z,23.65
2018-12-24T08:15:25.480Z,12.93
2018-12-24T08:16:30.896Z,10.78
2018-12-24T08:17:36.294Z,12.68
2018-12-24T08:18:42.015Z,12.93
2018-12-24T08:19:47.316Z,12.00
2018-12-24T08:20:52.612Z,18.52
2018-12-24T08:21:57.956Z,14.95
2018-12-24T08:23:03.369Z,13.40
2018-12-24T08:24:08.739Z,14.07
2018-12-24T08:25:14.120Z,15.72
2018-12-24T08:26:19.560Z,15.08
2018-12-24T08:27:25.005Z,15.25
2018-12-24T08:28:30.356Z,15.35
2018-12-24T08:29:35.687Z,12.93
2018-12-24T08:30:41.116Z,15.00
2018-12-24T08:31:46.481Z,15.83
2018-12-24T08:32:52.002Z,13.25
2018-12-24T08:33:57.583Z,14.43
2018-12-24T08:35:03.025Z,14.15
2018-12-24T08:36:08.611Z,17.55
2018-12-24T08:37:14.216Z,20.10
2018-12-24T08:38:19.525Z,20.65
2018-12-24T08:39:25.154Z,16.10
2018-12-24T08:40:30.534Z,12.33
2018-12-24T08:41:35.944Z,14.63
2018-12-24T08:42:41.298Z,13.80
2018-12-24T08:43:46.779Z,15.08
2018-12-24T08:44:52.116Z,10.72
2018-12-24T08:45:57.392Z,16.82
2018-12-24T08:47:02.801Z,13.68
2018-12-24T08:48:08.293Z,15.53
2018-12-24T08:50:03.335Z,14.00
2018-12-24T08:51:08.319Z,15.08
2018-12-24T08:52:13.320Z,15.93
2018-12-24T08:53:18.274Z,18.30
2018-12-24T08:54:23.360Z,19.90
2018-12-24T08:55:28.429Z,14.95
2018-12-24T08:56:33.532Z,14.93
2018-12-24T08:57:38.543Z,12.93
2018-12-24T08:58:43.437Z,16.15
2018-12-24T08:59:48.472Z,16.48
2018-12-24T09:00:53.581Z,14.00
2018-12-24T09:01:58.810Z,17.00
2018-12-24T09:03:03.913Z,15.43
2018-12-24T09:04:08.826Z,16.55
2018-12-24T09:05:13.937Z,18.20
2018-12-24T09:06:19.303Z,15.48
2018-12-24T09:07:24.245Z,16.48
2018-12-24T09:08:29.334Z,16.65
2018-12-24T09:09:34.370Z,16.23
2018-12-24T09:10:39.200Z,14.90
2018-12-24T09:11:44.161Z,15.43
2018-12-24T09:12:49.221Z,14.25
2018-12-24T09:13:54.301Z,17.32
2018-12-24T09:14:59.220Z,14.45
2018-12-24T09:16:04.280Z,11.83
2018-12-24T09:17:09.169Z,14.55
2018-12-24T09:18:14.052Z,14.30
2018-12-24T09:19:18.936Z,14.68
2018-12-24T09:20:23.892Z,14.55
2018-12-24T09:21:28.932Z,14.45
2018-12-24T09:22:33.892Z,13.30
2018-12-24T09:23:38.957Z,15.83
2018-12-24T09:24:43.814Z,17.32
2018-12-24T09:25:48.723Z,15.65
2018-12-24T09:26:53.599Z,15.38
2018-12-24T09:27:58.452Z,14.68
2018-12-24T09:29:03.575Z,14.33
2018-12-24T09:30:11.468Z,16.90
2018-12-24T09:31:16.302Z,14.28
2018-12-24T09:32:21.365Z,15.72
2018-12-24T09:33:26.213Z,13.90
2018-12-24T09:34:31.435Z,15.83
2018-12-24T09:35:36.399Z,15.65
2018-12-24T09:36:41.357Z,15.85
2018-12-24T09:37:46.262Z,15.72
2018-12-24T09:38:51.232Z,22.80
2018-12-24T09:39:56.121Z,18.20
2018-12-24T09:41:01.007Z,14.75
2018-12-24T09:42:06.002Z,21.23
2018-12-24T09:43:11.074Z,21.85
2018-12-24T09:44:16.002Z,15.68
2018-12-24T09:45:20.957Z,14.30
2018-12-24T09:46:25.902Z,14.33
2018-12-24T09:47:30.756Z,15.98
2018-12-24T09:48:35.752Z,16.73
2018-12-24T09:49:40.683Z,17.55
2018-12-24T09:50:45.600Z,20.82
2018-12-24T09:51:50.450Z,20.48
2018-12-24T09:52:55.393Z,19.40
2018-12-24T09:54:00.312Z,22.17
2018-12-24T09:55:05.439Z,20.77
2018-12-24T09:56:12.451Z,19.00
2018-12-24T09:57:16.921Z,18.15
2018-12-24T09:58:21.853Z,17.10
2018-12-24T09:59:26.927Z,21.27
2018-12-24T10:00:31.875Z,23.83
2018-12-24T10:01:36.722Z,20.15
2018-12-24T10:02:45.076Z,20.57
2018-12-24T10:03:53.563Z,24.05
2018-12-24T10:04:58.473Z,16.82
2018-12-24T10:06:30.195Z,18.15
2018-12-24T10:07:37.366Z,16.93
2018-12-24T10:08:42.384Z,13.83
2018-12-24T10:09:47.397Z,13.22
2018-12-24T10:10:52.436Z,15.03
2018-12-24T10:11:57.561Z,16.00
2018-12-24T10:13:02.400Z,15.88
2018-12-24T10:14:07.403Z,19.20
2018-12-24T10:15:14.354Z,13.75
2018-12-24T10:16:19.380Z,12.88
2018-12-24T10:17:24.241Z,16.05
2018-12-24T10:18:29.115Z,12.82
2018-12-24T10:19:34.236Z,15.43
2018-12-24T10:20:39.093Z,14.25
2018-12-24T10:21:44.091Z,21.68
2018-12-24T10:22:48.964Z,17.62
2018-12-24T10:23:56.140Z,14.38
2018-12-24T10:25:01.394Z,16.82
2018-12-24T10:26:06.291Z,20.30
2018-12-24T10:27:11.133Z,14.45
2018-12-24T10:28:16.156Z,18.00
2018-12-24T10:29:21.121Z,14.50
2018-12-24T10:30:26.119Z,25.05
2018-12-24T10:31:31.001Z,16.55
2018-12-24T10:32:35.836Z,18.40
2018-12-24T10:33:41.145Z,15.78
2018-12-24T10:34:50.495Z,17.65
2018-12-24T10:35:56.514Z,18.30
2018-12-24T10:37:01.891Z,14.33
2018-12-24T10:38:07.181Z,14.25
2018-12-24T10:39:12.616Z,13.25
2018-12-24T10:40:18.919Z,12.20
2018-12-24T10:41:26.284Z,13.13
2018-12-24T10:42:31.353Z,13.85
2018-12-24T10:43:37.854Z,11.35
2018-12-24T10:44:42.830Z,15.00
2018-12-24T10:45:47.835Z,10.35
2018-12-24T10:46:52.805Z,12.05
2018-12-24T10:47:57.726Z,12.40
2018-12-24T10:49:02.713Z,14.28
2018-12-24T10:50:07.974Z,12.25
2018-12-24T10:51:13.031Z,11.33
2018-12-24T10:52:18.007Z,12.00
2018-12-24T10:53:22.879Z,12.00
2018-12-24T10:54:28.531Z,15.20
2018-12-24T10:55:33.482Z,11.83
2018-12-24T10:56:39.907Z,14.38
2018-12-24T10:57:45.226Z,14.93
2018-12-24T10:58:50.112Z,16.23
2018-12-24T10:59:55.314Z,11.48
2018-12-24T11:01:00.196Z,13.53
2018-12-24T11:02:05.202Z,11.97
2018-12-24T11:03:10.244Z,12.73
2018-12-24T11:04:15.285Z,10.98
2018-12-24T11:05:20.203Z,21.87
2018-12-24T11:06:25.148Z,11.73
2018-12-24T11:07:30.239Z,13.08
2018-12-24T11:08:35.071Z,11.55
2018-12-24T11:09:40.233Z,11.65
2018-12-24T11:10:46.713Z,9.65
2018-12-24T11:11:51.953Z,12.28
2018-12-24T11:12:56.771Z,14.18
2018-12-24T11:14:01.690Z,13.95
2018-12-24T11:15:08.160Z,13.00
2018-12-24T11:16:13.081Z,12.30
2018-12-24T11:17:18.006Z,9.23
2018-12-24T11:18:22.836Z,11.45
2018-12-24T11:19:27.863Z,12.20
2018-12-24T11:20:32.834Z,11.10
2018-12-24T11:21:37.713Z,13.28
2018-12-24T11:22:42.642Z,15.13
2018-12-24T11:23:47.481Z,11.63
2018-12-24T11:24:52.396Z,10.25
2018-12-24T11:25:57.520Z,11.93
2018-12-24T11:27:02.392Z,11.60
2018-12-24T11:28:07.352Z,13.60
2018-12-24T11:29:12.270Z,14.60
2018-12-24T11:30:17.481Z,13.38
2018-12-24T11:31:22.403Z,12.37
2018-12-24T11:32:27.354Z,12.95
2018-12-24T11:33:32.242Z,12.47
2018-12-24T11:34:37.276Z,13.48
2018-12-24T11:35:42.233Z,14.35
2018-12-24T11:36:47.090Z,12.60
2018-12-24T11:37:52.123Z,13.28
2018-12-24T11:38:58.195Z,12.90
2018-12-24T11:40:03.152Z,13.90
2018-12-24T11:41:08.165Z,11.80
2018-12-24T11:42:13.236Z,10.85
2018-12-24T11:43:18.273Z,11.35
2018-12-24T11:44:23.203Z,11.10
2018-12-24T11:45:33.812Z,9.90
2018-12-24T11:46:34.626Z,11.73
2018-12-24T11:47:39.761Z,13.05
2018-12-24T11:48:44.803Z,17.85
2018-12-24T11:49:49.841Z,61.98
2018-12-24T11:50:54.996Z,77.90
2018-12-24T11:52:00.396Z,125.20
2018-12-24T11:53:05.258Z,85.00
2018-12-24T11:54:10.233Z,91.70
2018-12-24T11:55:15.276Z,40.75
2018-12-24T11:56:20.256Z,19.85
2018-12-24T11:57:25.263Z,14.63
2018-12-24T11:58:30.491Z,14.47
2018-12-24T11:59:35.467Z,18.95
2018-12-24T12:00:40.593Z,13.08
2018-12-24T12:01:45.647Z,13.03
2018-12-24T12:02:51.760Z,13.10
2018-12-24T12:03:56.653Z,12.82
2018-12-24T12:05:01.599Z,12.65
2018-12-24T12:06:06.633Z,13.93
2018-12-24T12:07:11.683Z,13.43
2018-12-24T12:08:16.797Z,15.55
2018-12-24T12:09:21.851Z,14.58
2018-12-24T12:10:26.951Z,24.75
2018-12-24T12:11:32.221Z,130.45
2018-12-24T12:12:37.151Z,397.33
2018-12-24T12:13:42.168Z,138.37
2018-12-24T12:14:47.002Z,240.05
2018-12-24T12:15:52.081Z,360.05
2018-12-24T12:16:57.033Z,90.00
2018-12-24T12:18:01.883Z,149.90
2018-12-24T12:19:06.927Z,15.63
2018-12-24T12:20:11.960Z,14.13
2018-12-24T12:21:16.832Z,11.78
2018-12-24T12:22:21.851Z,10.23
2018-12-24T12:23:26.711Z,11.18
2018-12-24T12:24:31.569Z,11.63
2018-12-24T12:25:36.614Z,11.22
2018-12-24T12:26:41.769Z,11.08
2018-12-24T12:27:46.636Z,9.90
2018-12-24T12:28:51.749Z,10.18
2018-12-24T12:29:56.606Z,9.30
2018-12-24T12:31:01.553Z,10.28
2018-12-24T12:32:06.596Z,9.55
2018-12-24T12:33:11.815Z,10.90
2018-12-24T12:34:16.765Z,10.13
2018-12-24T12:35:21.841Z,11.43
2018-12-24T12:36:27.009Z,9.68
2018-12-24T12:37:32.085Z,12.23
2018-12-24T12:38:37.076Z,19.55
2018-12-24T12:39:42.118Z,49.70
2018-12-24T12:40:46.901Z,45.35
2018-12-24T12:41:51.801Z,24.32
2018-12-24T12:42:56.898Z,24.27
2018-12-24T12:44:01.952Z,12.68
2018-12-24T12:45:07.013Z,11.25
2018-12-24T12:46:12.237Z,11.50
2018-12-24T12:47:17.249Z,11.30
2018-12-24T12:48:22.241Z,10.08
2018-12-24T12:49:27.142Z,8.08
2018-12-24T12:50:32.090Z,7.95
2018-12-24T12:51:37.478Z,9.30
2018-12-24T12:52:42.467Z,8.88
2018-12-24T12:53:47.447Z,10.10
2018-12-24T12:54:52.535Z,8.83
2018-12-24T12:55:57.595Z,9.95
2018-12-24T12:57:02.695Z,9.30
2018-12-24T12:58:07.640Z,8.93
2018-12-24T12:59:12.559Z,9.73
2018-12-24T13:00:17.672Z,10.30
2018-12-24T13:01:22.631Z,8.83
2018-12-24T13:02:27.634Z,8.10
2018-12-24T13:03:32.812Z,9.38
2018-12-24T13:04:37.846Z,12.18
2018-12-24T13:05:42.751Z,10.85
2018-12-24T13:06:47.800Z,11.73
2018-12-24T13:07:52.720Z,11.60
2018-12-24T13:08:57.663Z,13.90
2018-12-24T13:10:04.507Z,10.23
2018-12-24T13:11:09.239Z,11.70
2018-12-24T13:12:14.113Z,12.23
2018-12-24T13:13:19.108Z,10.88
2018-12-24T13:14:23.992Z,13.53
2018-12-24T13:15:28.800Z,12.63
2018-12-24T13:16:33.775Z,13.18
2018-12-24T13:17:38.883Z,13.48
2018-12-24T13:18:43.800Z,14.13
2018-12-24T13:19:48.847Z,13.28
2018-12-24T13:20:53.778Z,12.88
2018-12-24T13:22:04.234Z,18.02
2018-12-24T13:23:05.392Z,13.83
2018-12-24T13:24:10.473Z,15.05
2018-12-24T13:25:15.326Z,15.85
2018-12-24T13:26:20.194Z,13.10
2018-12-24T13:27:25.117Z,19.20
2018-12-24T13:28:30.114Z,16.25
2018-12-24T13:29:34.961Z,17.80
2018-12-24T13:30:39.848Z,17.07
2018-12-24T13:31:44.785Z,22.27
2018-12-24T13:32:49.742Z,20.75
2018-12-24T13:33:54.671Z,18.73
2018-12-24T13:34:59.589Z,38.88
2018-12-24T13:36:06.955Z,20.27
2018-12-24T13:37:11.988Z,21.87
2018-12-24T13:38:16.935Z,21.82
2018-12-24T13:39:21.863Z,18.98
2018-12-24T13:40:26.850Z,22.30
2018-12-24T13:41:31.872Z,20.88
2018-12-24T13:42:36.835Z,17.12
2018-12-24T13:43:41.798Z,20.97
2018-12-24T13:44:46.805Z,19.07
2018-12-24T13:45:51.804Z,16.40
2018-12-24T13:46:56.778Z,17.70
2018-12-24T13:48:01.752Z,18.73
2018-12-24T13:49:06.581Z,16.37
2018-12-24T13:50:11.431Z,16.57
2018-12-24T13:51:16.325Z,15.18
2018-12-24T13:52:21.185Z,12.68
2018-12-24T13:53:26.267Z,17.42
2018-12-24T13:54:31.195Z,14.45
2018-12-24T13:55:36.160Z,15.68
2018-12-24T13:56:40.959Z,15.25
2018-12-24T13:57:45.871Z,16.82
2018-12-24T13:58:50.680Z,17.67
2018-12-24T13:59:55.602Z,26.75
2018-12-24T14:01:00.441Z,26.50
2018-12-24T14:02:05.417Z,72.25
2018-12-24T14:03:10.320Z,20.23
2018-12-24T14:04:15.300Z,17.60
2018-12-24T14:05:20.241Z,18.65
2018-12-24T14:06:25.084Z,19.73
2018-12-24T14:07:29.954Z,18.65
2018-12-24T14:08:34.800Z,24.10
2018-12-24T14:09:39.607Z,30.45
2018-12-24T14:10:44.722Z,27.25
2018-12-24T14:11:49.856Z,20.48
2018-12-24T14:12:55.427Z,107.15
2018-12-24T14:14:00.476Z,46.55
2018-12-24T14:15:06.539Z,75.62
2018-12-24T14:16:16.672Z,42.05